Arvada, WY (82831)

1:54 AM MDT on September 16, 2014 (GMT -0600)
Gillette-Campbell County | Change Station
CLOSE
Current Station
Airport
Location: Gillette,
Elevation: 4364 ft
Nearby Weather Stations

Elev 4364 ft 44.34 °N, 105.54 °W | Updated 1 hour ago

Clear
Clear
51 °F
Feels Like 51 °F
N
4
Wind Variable Wind from Variable

Today
High -- | Low -- °F
--% Chance of Precip.
Yesterday
High -- | Low -- °F
Precip. -- in
6:44 AM 7:13 PM
Waning Gibbous, 48% visible
Pressure 30.03 in
Visibility -9999.0 miles
Clouds Clear
Dew Point 44 °F
Humidity 77%
Rainfall 0.00 in
Snow Depth Not available.
UV 0 out of 12
Pollen 5.50 out of 12
Air Quality Not available.
Flu Activity Not available.
METAR KGCC 160653Z AUTO VRB03KT CLR 11/07 A3011 RMK AO2 SLP169 T01060067 402280011 $

More Conditions Fewer Conditions

Pressure 30.03 in
Visibility -9999.0 miles
Clouds Clear
Dew Point 44 °F
Humidity 77%
Rainfall 0.00 in
Snow Depth Not available.
UV 0 out of 12
Pollen 5.50 out of 12
Air Quality Not available.
Flu Activity Not available.
METAR KGCC 160653Z AUTO VRB03KT CLR 11/07 A3011 RMK AO2 SLP169 T01060067 402280011 $

More Conditions Fewer Conditions

10-Day Weather Forecast

Almanac

Astronomy

Sep. 16, 2014 Rise Set
Actual Time 6:44 AM MDT 7:13 PM MDT
Civil Twilight 6:15 AM MDT 7:42 PM MDT
Nautical Twilight 5:40 AM MDT 8:16 PM MDT
Astronomical Twilight 5:04 AM MDT 8:52 PM MDT
Moon No Moon Rise 2:49 PM MDT
Length of Visible Light 13h 27m
Length of Day
12h 28m
Tomorrow will be 3m 4s shorter.
Waning Gibbous, 48% of the Moon is Illuminated
Today
Waning Gibbous
Sep 24
New
Oct 1
First Quarter
Oct 8
Full
Oct 15
Last Quarter

Today's Extremes

State Highs State Lows

Community

WunderPhotos

Upload Photos

1,753,712 photos uploaded!

Nearby

Snow Depth

Station Depth Elevation
Crow Creek 0 in 8330 ft
Sylvan Lake 0 in 8420 ft
South Brush Creek 0 in 8440 ft
Thumb Divide 0 in 7980 ft
Willow Creek 2 in 8450 ft

Earthquake Activity

City Distance Mag. Time & Date
No recent earthquake activity has been reported nearby.
Minimum magnitude displayed is 2.5.

Coastal Water Temperatures

Place Temperature
No Stations Reporting

Nearby Weather Stations